createdAt,value
2023-05-10T00:01:05.118Z,14.50
2023-05-10T00:03:33.081Z,14.40
2023-05-10T00:06:00.870Z,14.40
2023-05-10T00:08:28.637Z,14.40
2023-05-10T00:10:56.369Z,14.40
2023-05-10T00:13:24.436Z,14.40
2023-05-10T00:15:52.402Z,14.40
2023-05-10T00:18:21.505Z,14.40
2023-05-10T00:20:49.650Z,14.50
2023-05-10T00:23:17.537Z,14.60
2023-05-10T00:25:45.274Z,14.60
2023-05-10T00:28:13.040Z,14.70
2023-05-10T00:30:40.824Z,14.70
2023-05-10T00:33:08.696Z,14.70
2023-05-10T00:35:38.723Z,14.60
2023-05-10T00:38:06.500Z,14.60
2023-05-10T00:40:34.349Z,14.60
2023-05-10T00:43:02.351Z,14.60
2023-05-10T00:45:30.587Z,14.60
2023-05-10T00:47:58.859Z,14.60
2023-05-10T00:50:26.948Z,14.60
2023-05-10T00:52:56.320Z,14.60
2023-05-10T00:55:24.197Z,14.60
2023-05-10T00:57:52.269Z,14.60
2023-05-10T01:00:20.367Z,14.60
2023-05-10T01:02:48.721Z,14.60
2023-05-10T01:05:17.081Z,14.50
2023-05-10T01:07:44.920Z,14.50
2023-05-10T01:10:14.339Z,14.60
2023-05-10T01:12:45.072Z,14.50
2023-05-10T01:15:14.391Z,14.40
2023-05-10T01:17:46.374Z,14.30
2023-05-10T01:20:14.948Z,14.30
2023-05-10T01:23:06.174Z,14.30
2023-05-10T01:26:09.374Z,14.30
2023-05-10T01:29:05.270Z,14.30
2023-05-10T01:31:56.130Z,14.20
2023-05-10T01:34:31.698Z,14.20
2023-05-10T01:37:06.180Z,14.20
2023-05-10T01:39:42.500Z,14.20
2023-05-10T01:42:12.849Z,14.20
2023-05-10T01:44:45.847Z,14.20
2023-05-10T01:47:18.214Z,14.10
2023-05-10T01:49:51.011Z,14.10
2023-05-10T01:52:21.664Z,14.10
2023-05-10T01:54:55.751Z,14.10
2023-05-10T01:57:25.858Z,14.20
2023-05-10T01:59:55.021Z,14.10
2023-05-10T02:02:26.434Z,14.10
2023-05-10T02:04:56.388Z,14.10
2023-05-10T02:07:25.192Z,14.10
2023-05-10T02:09:53.339Z,14.10
2023-05-10T02:12:22.694Z,14.00
2023-05-10T02:14:51.598Z,14.00
2023-05-10T02:17:20.657Z,14.00
2023-05-10T02:19:50.226Z,14.00
2023-05-10T02:22:19.106Z,13.90
2023-05-10T02:24:48.825Z,13.90
2023-05-10T02:27:17.998Z,14.00
2023-05-10T02:29:47.292Z,14.00
2023-05-10T02:32:17.042Z,13.90
2023-05-10T02:34:46.626Z,13.90
2023-05-10T02:37:16.506Z,13.90
2023-05-10T02:39:46.410Z,13.90
2023-05-10T02:42:19.727Z,13.90
2023-05-10T02:44:50.734Z,13.90
2023-05-10T02:47:18.837Z,14.00
2023-05-10T02:49:46.803Z,14.00
2023-05-10T02:52:18.607Z,14.00
2023-05-10T02:54:49.198Z,14.10
2023-05-10T02:57:20.136Z,14.00
2023-05-10T02:59:47.928Z,14.00
2023-05-10T03:02:15.741Z,14.00
2023-05-10T03:04:43.519Z,14.00
2023-05-10T03:07:11.597Z,14.00
2023-05-10T03:09:41.479Z,14.00
2023-05-10T03:12:17.433Z,14.10
2023-05-10T03:14:54.088Z,14.10
2023-05-10T03:17:27.624Z,14.10
2023-05-10T03:19:57.394Z,14.10
2023-05-10T03:22:30.141Z,14.10
2023-05-10T03:25:00.203Z,14.10
2023-05-10T03:27:29.591Z,14.20
2023-05-10T03:29:58.827Z,14.20
2023-05-10T03:32:28.010Z,14.20
2023-05-10T03:34:55.759Z,14.30
2023-05-10T03:37:23.552Z,14.30
2023-05-10T03:39:51.400Z,14.30
2023-05-10T03:42:20.579Z,15.00
2023-05-10T03:44:50.049Z,14.30
2023-05-10T03:47:17.891Z,14.20
2023-05-10T03:49:45.681Z,14.20
2023-05-10T03:52:13.839Z,14.20
2023-05-10T03:54:41.722Z,14.20
2023-05-10T03:57:10.461Z,14.20
2023-05-10T03:59:39.560Z,14.20
2023-05-10T04:02:07.781Z,14.20
2023-05-10T04:04:35.642Z,14.20
2023-05-10T04:07:03.737Z,14.20
2023-05-10T04:09:31.520Z,14.20
2023-05-10T04:12:00.747Z,14.30
2023-05-10T04:14:28.523Z,14.20
2023-05-10T04:16:57.705Z,14.20
2023-05-10T04:19:25.541Z,14.20
2023-05-10T04:21:53.285Z,14.10
2023-05-10T04:24:21.049Z,14.20
2023-05-10T04:26:48.886Z,14.20
2023-05-10T04:29:16.634Z,14.20
2023-05-10T04:31:44.373Z,14.20
2023-05-10T04:34:13.554Z,14.20
2023-05-10T04:36:41.379Z,14.20
2023-05-10T04:39:09.924Z,14.10
2023-05-10T04:41:39.336Z,14.10
2023-05-10T04:44:07.361Z,14.10
2023-05-10T04:46:35.200Z,14.10
2023-05-10T04:49:03.042Z,14.10
2023-05-10T04:51:32.774Z,14.10
2023-05-10T04:54:05.871Z,14.10
2023-05-10T04:56:34.142Z,14.10
2023-05-10T04:59:01.927Z,14.10
2023-05-10T05:01:30.243Z,14.00
2023-05-10T05:03:58.182Z,14.00
2023-05-10T05:06:28.009Z,14.00
2023-05-10T05:08:57.174Z,14.00
2023-05-10T05:11:24.969Z,14.00
2023-05-10T05:13:52.762Z,14.00
2023-05-10T05:16:20.563Z,14.00
2023-05-10T05:18:48.359Z,13.90
2023-05-10T05:21:17.223Z,14.00
2023-05-10T05:23:45.165Z,14.00
2023-05-10T05:26:14.286Z,14.00
2023-05-10T05:28:42.010Z,14.00
2023-05-10T05:31:10.175Z,14.00
2023-05-10T05:33:38.444Z,14.00
2023-05-10T05:36:07.572Z,14.00
2023-05-10T05:38:35.358Z,14.10
2023-05-10T05:41:03.537Z,14.10
2023-05-10T05:43:32.603Z,14.00
2023-05-10T05:46:00.386Z,14.20
2023-05-10T05:48:28.241Z,14.10
2023-05-10T05:50:57.427Z,14.10
2023-05-10T05:53:25.661Z,14.20
2023-05-10T05:55:54.990Z,14.30
2023-05-10T05:58:22.996Z,14.30
2023-05-10T06:00:52.760Z,14.30
2023-05-10T06:03:21.109Z,14.30
2023-05-10T06:05:49.487Z,14.30
2023-05-10T06:08:17.328Z,14.30
2023-05-10T06:10:45.323Z,14.40
2023-05-10T06:13:13.105Z,14.40
2023-05-10T06:15:41.014Z,14.40
2023-05-10T06:18:10.166Z,14.40
2023-05-10T06:20:37.935Z,14.50
2023-05-10T06:23:05.804Z,14.40
2023-05-10T06:25:33.573Z,14.50
2023-05-10T06:28:01.345Z,14.50
2023-05-10T06:30:29.900Z,14.50
2023-05-10T06:32:58.263Z,14.50
2023-05-10T06:35:27.527Z,14.50
2023-05-10T06:37:55.646Z,14.60
2023-05-10T06:40:23.393Z,14.70
2023-05-10T06:42:51.255Z,14.60
2023-05-10T06:45:19.452Z,14.70
2023-05-10T06:47:47.507Z,14.80
2023-05-10T06:50:15.313Z,14.80
2023-05-10T06:52:44.540Z,14.80
2023-05-10T06:55:12.674Z,14.90
2023-05-10T06:57:40.468Z,14.90
2023-05-10T07:00:10.521Z,15.00
2023-05-10T07:02:38.573Z,15.10
2023-05-10T07:05:07.158Z,15.20
2023-05-10T07:07:34.931Z,15.30
2023-05-10T07:10:04.433Z,15.40
2023-05-10T07:12:32.337Z,15.50
2023-05-10T07:15:00.145Z,15.60
2023-05-10T07:17:28.020Z,15.60
2023-05-10T07:19:55.809Z,15.60
2023-05-10T07:22:23.579Z,15.70
2023-05-10T07:24:51.334Z,15.80
2023-05-10T07:27:20.438Z,15.90
2023-05-10T07:29:48.208Z,15.90
2023-05-10T07:32:16.015Z,16.00
2023-05-10T07:34:43.867Z,16.00
2023-05-10T07:37:11.651Z,16.00
2023-05-10T07:39:39.406Z,16.00
2023-05-10T07:42:07.529Z,16.10
2023-05-10T07:44:36.650Z,16.10
2023-05-10T07:47:04.418Z,16.20
2023-05-10T07:49:32.204Z,16.20
2023-05-10T07:52:00.009Z,16.20
2023-05-10T07:54:27.887Z,16.20
2023-05-10T07:56:55.729Z,16.20
2023-05-10T07:59:23.491Z,16.20
2023-05-10T08:01:52.596Z,16.20
2023-05-10T08:04:20.410Z,16.10
2023-05-10T08:06:48.225Z,16.10
2023-05-10T08:09:15.980Z,16.00
2023-05-10T08:11:43.733Z,15.90
2023-05-10T08:14:11.487Z,15.80
2023-05-10T08:16:39.256Z,15.70
2023-05-10T08:19:08.370Z,15.60
2023-05-10T08:21:36.660Z,15.60
2023-05-10T08:24:04.639Z,15.60
2023-05-10T08:26:34.122Z,15.60
2023-05-10T08:29:01.888Z,15.60
2023-05-10T08:31:29.789Z,15.60
2023-05-10T08:33:57.672Z,15.50
2023-05-10T08:36:27.372Z,15.50
2023-05-10T08:38:56.066Z,15.50
2023-05-10T08:41:26.701Z,15.60
2023-05-10T08:43:55.317Z,15.60
2023-05-10T08:46:24.953Z,15.60
2023-05-10T08:48:53.399Z,15.60
2023-05-10T08:51:24.676Z,15.60
2023-05-10T08:53:54.278Z,15.60
2023-05-10T08:56:22.407Z,15.70
2023-05-10T08:58:50.795Z,15.80
2023-05-10T09:01:20.204Z,15.90
2023-05-10T09:03:48.879Z,16.00
2023-05-10T09:06:16.939Z,16.10
2023-05-10T09:08:45.363Z,16.20
2023-05-10T09:11:15.159Z,16.20
2023-05-10T09:13:44.276Z,16.30
2023-05-10T09:16:21.195Z,16.20
2023-05-10T09:18:50.878Z,16.20
2023-05-10T09:21:18.693Z,16.10
2023-05-10T09:23:48.432Z,16.00
2023-05-10T09:26:18.384Z,15.90
2023-05-10T09:28:54.042Z,15.80
2023-05-10T09:31:22.052Z,15.70
2023-05-10T09:33:51.363Z,15.50
2023-05-10T09:36:19.343Z,15.40
2023-05-10T09:38:48.698Z,15.90
2023-05-10T09:41:22.334Z,15.60
2023-05-10T09:43:50.634Z,15.90
2023-05-10T09:46:19.480Z,16.10
2023-05-10T09:48:48.457Z,16.40
2023-05-10T09:51:27.768Z,16.80
2023-05-10T09:54:12.397Z,17.20
2023-05-10T09:56:41.755Z,17.50
2023-05-10T09:59:12.322Z,17.80
2023-05-10T10:01:41.339Z,18.00
2023-05-10T10:04:10.320Z,17.90
2023-05-10T10:06:39.403Z,17.70
2023-05-10T10:09:07.957Z,17.40
2023-05-10T10:11:37.219Z,17.00
2023-05-10T10:14:07.377Z,16.80
2023-05-10T10:16:35.212Z,16.60
2023-05-10T10:19:03.471Z,16.50
2023-05-10T10:21:31.779Z,16.40
2023-05-10T10:23:59.539Z,16.20
2023-05-10T10:26:27.889Z,16.20
2023-05-10T10:29:09.031Z,16.20
2023-05-10T10:31:42.843Z,16.20
2023-05-10T10:34:14.959Z,16.20
2023-05-10T10:36:44.155Z,16.30
2023-05-10T10:39:13.273Z,16.40
2023-05-10T10:41:44.722Z,16.60
2023-05-10T10:44:41.200Z,16.90
2023-05-10T10:47:30.554Z,17.30
2023-05-10T10:50:06.514Z,17.60
2023-05-10T10:52:35.996Z,18.00
2023-05-10T10:55:07.416Z,18.40
2023-05-10T10:57:44.407Z,18.80
2023-05-10T11:00:27.049Z,19.00
2023-05-10T11:02:59.125Z,19.00
2023-05-10T11:05:35.934Z,18.90
2023-05-10T11:08:11.560Z,18.70
2023-05-10T11:10:39.969Z,18.60
2023-05-10T11:13:08.832Z,18.60
2023-05-10T11:15:38.400Z,18.60
2023-05-10T11:18:26.225Z,18.50
2023-05-10T11:20:56.956Z,18.50
2023-05-10T11:23:25.422Z,18.40
2023-05-10T11:25:53.186Z,18.40
2023-05-10T11:28:21.447Z,18.40
2023-05-10T11:30:49.428Z,18.30
2023-05-10T11:33:18.691Z,18.10
2023-05-10T11:35:48.362Z,17.90
2023-05-10T11:38:16.293Z,17.80
2023-05-10T11:40:44.438Z,17.70
2023-05-10T11:43:13.069Z,17.60
2023-05-10T11:45:43.337Z,17.40
2023-05-10T11:48:11.162Z,17.30
2023-05-10T11:50:39.142Z,17.20
2023-05-10T11:53:08.248Z,17.20
2023-05-10T11:55:36.345Z,17.20
2023-05-10T11:58:04.763Z,17.20
2023-05-10T12:00:33.472Z,17.10
2023-05-10T12:03:02.947Z,17.10
2023-05-10T12:05:33.511Z,17.20
2023-05-10T12:08:14.991Z,17.20
2023-05-10T12:10:43.096Z,17.30
2023-05-10T12:13:16.068Z,17.40
2023-05-10T12:15:44.624Z,17.50
2023-05-10T12:18:12.675Z,17.70
2023-05-10T12:20:41.391Z,17.80
2023-05-10T12:23:11.346Z,17.90
2023-05-10T12:25:40.968Z,18.10
2023-05-10T12:28:10.446Z,18.30
2023-05-10T12:30:39.144Z,18.50
2023-05-10T12:33:10.693Z,18.80
2023-05-10T12:35:47.503Z,19.10
2023-05-10T12:38:30.365Z,19.30
2023-05-10T12:40:59.984Z,19.40
2023-05-10T12:43:27.783Z,19.50
2023-05-10T12:45:55.653Z,19.50
2023-05-10T12:48:23.578Z,19.60
2023-05-10T12:50:51.493Z,19.60
2023-05-10T12:53:19.230Z,19.60
2023-05-10T12:55:47.065Z,19.50
2023-05-10T12:58:31.579Z,19.40
2023-05-10T13:01:02.845Z,19.40
2023-05-10T13:03:31.346Z,19.40
2023-05-10T13:05:59.210Z,19.40
2023-05-10T13:08:26.982Z,19.40
2023-05-10T13:10:54.789Z,19.30
2023-05-10T13:13:23.897Z,19.20
2023-05-10T13:15:51.659Z,19.20
2023-05-10T13:18:19.611Z,19.10
2023-05-10T13:20:47.414Z,19.00
2023-05-10T13:23:15.175Z,18.90
2023-05-10T13:25:42.920Z,18.80
2023-05-10T13:28:10.769Z,18.80
2023-05-10T13:30:39.840Z,18.90
2023-05-10T13:33:07.611Z,18.90
2023-05-10T13:35:35.396Z,18.90
2023-05-10T13:38:03.163Z,18.80
2023-05-10T13:40:30.931Z,18.80
2023-05-10T13:42:58.681Z,18.70
2023-05-10T13:45:26.489Z,18.60
2023-05-10T13:47:55.623Z,18.60
2023-05-10T13:50:23.490Z,18.60
2023-05-10T13:52:51.435Z,18.70
2023-05-10T13:55:19.501Z,18.80
2023-05-10T13:57:47.520Z,18.80
2023-05-10T14:00:16.034Z,18.80
2023-05-10T14:02:43.934Z,18.80
2023-05-10T14:05:13.207Z,18.80
2023-05-10T14:07:40.936Z,18.80
2023-05-10T14:10:09.314Z,18.70
2023-05-10T14:12:37.114Z,18.70
2023-05-10T14:15:07.445Z,18.60
2023-05-10T14:17:35.362Z,18.60
2023-05-10T14:20:03.433Z,18.50
2023-05-10T14:22:32.545Z,18.40
2023-05-10T14:25:00.487Z,18.40
2023-05-10T14:27:28.269Z,18.30
2023-05-10T14:29:56.067Z,18.20
2023-05-10T14:32:23.895Z,18.10
2023-05-10T14:34:51.670Z,18.10
2023-05-10T14:37:19.422Z,18.00
2023-05-10T14:39:48.524Z,17.80
2023-05-10T14:42:16.261Z,17.70
2023-05-10T14:44:44.005Z,17.60
2023-05-10T14:47:12.295Z,17.60
2023-05-10T14:49:40.369Z,17.50
2023-05-10T14:52:08.270Z,17.30
2023-05-10T14:54:36.093Z,17.20
2023-05-10T14:57:05.272Z,17.10
2023-05-10T14:59:33.113Z,17.00
2023-05-10T15:02:01.645Z,17.00
2023-05-10T15:04:29.952Z,16.90
2023-05-10T15:07:00.132Z,16.80
2023-05-10T15:09:28.348Z,16.80
2023-05-10T15:11:56.213Z,16.70
2023-05-10T15:14:25.520Z,16.80
2023-05-10T15:16:53.273Z,16.80
2023-05-10T15:19:22.011Z,16.70
2023-05-10T15:21:49.765Z,16.70
2023-05-10T15:24:17.809Z,16.70
2023-05-10T15:26:45.678Z,16.70
2023-05-10T15:29:20.371Z,16.60
2023-05-10T15:31:50.023Z,16.60
2023-05-10T15:34:18.634Z,16.50
2023-05-10T15:36:46.737Z,16.30
2023-05-10T15:39:14.495Z,16.20
2023-05-10T15:41:42.509Z,16.20
2023-05-10T15:44:10.317Z,16.10
2023-05-10T15:46:38.746Z,16.00
2023-05-10T15:49:07.990Z,15.90
2023-05-10T15:51:36.785Z,15.90
2023-05-10T15:54:08.275Z,15.80
2023-05-10T15:56:36.451Z,15.80
2023-05-10T15:59:05.951Z,15.80
2023-05-10T16:01:33.757Z,15.80
2023-05-10T16:04:01.794Z,15.80
2023-05-10T16:06:31.226Z,15.70
2023-05-10T16:08:59.018Z,15.80
2023-05-10T16:11:26.814Z,15.70
2023-05-10T16:13:54.590Z,15.80
2023-05-10T16:16:22.466Z,15.80
2023-05-10T16:18:50.401Z,15.80
2023-05-10T16:21:18.241Z,15.80
2023-05-10T16:23:47.769Z,15.80
2023-05-10T16:26:15.517Z,15.70
2023-05-10T16:28:43.275Z,15.70
2023-05-10T16:31:11.023Z,15.60
2023-05-10T16:33:38.902Z,15.50
2023-05-10T16:36:06.871Z,15.50
2023-05-10T16:38:34.651Z,15.40
2023-05-10T16:41:04.642Z,15.40
2023-05-10T16:43:33.698Z,15.40
2023-05-10T16:46:01.636Z,15.40
2023-05-10T16:48:29.490Z,15.40
2023-05-10T16:50:57.252Z,15.30
2023-05-10T16:53:24.995Z,15.30
2023-05-10T16:55:52.745Z,15.30
2023-05-10T16:58:21.844Z,15.30
2023-05-10T17:00:49.617Z,15.30
2023-05-10T17:03:17.457Z,15.20
2023-05-10T17:05:45.270Z,15.20
2023-05-10T17:08:13.035Z,15.20
2023-05-10T17:10:41.377Z,15.10
2023-05-10T17:13:10.427Z,15.10
2023-05-10T17:15:40.212Z,15.10
2023-05-10T17:18:08.174Z,15.10
2023-05-10T17:20:35.990Z,15.00
2023-05-10T17:23:04.107Z,15.00
2023-05-10T17:25:31.882Z,15.00
2023-05-10T17:27:59.634Z,15.00
2023-05-10T17:30:28.725Z,14.90
2023-05-10T17:32:57.880Z,14.90
2023-05-10T17:35:25.850Z,15.00
2023-05-10T17:37:53.769Z,14.90
2023-05-10T17:40:21.783Z,14.80
2023-05-10T17:42:49.646Z,14.80
2023-05-10T17:45:18.240Z,14.80
2023-05-10T17:47:46.247Z,14.70
2023-05-10T17:50:15.614Z,14.60
2023-05-10T17:52:43.358Z,14.70
2023-05-10T17:55:12.434Z,14.70
2023-05-10T17:57:40.194Z,14.70
2023-05-10T18:00:10.000Z,14.70
2023-05-10T18:02:38.328Z,14.60
2023-05-10T18:05:07.025Z,14.60
2023-05-10T18:07:36.694Z,14.60
2023-05-10T18:10:04.660Z,14.60
2023-05-10T18:12:32.416Z,14.60
2023-05-10T18:15:00.530Z,14.70
2023-05-10T18:17:28.332Z,14.60
2023-05-10T18:19:56.109Z,14.60
2023-05-10T18:22:23.935Z,14.60
2023-05-10T18:24:53.065Z,14.60
2023-05-10T18:27:20.896Z,14.50
2023-05-10T18:29:48.617Z,14.50
2023-05-10T18:32:16.573Z,14.50
2023-05-10T18:34:44.328Z,14.40
2023-05-10T18:37:12.080Z,14.40
2023-05-10T18:39:39.888Z,14.50
2023-05-10T18:42:09.822Z,14.40
2023-05-10T18:44:37.620Z,14.30
2023-05-10T18:47:05.436Z,14.30
2023-05-10T18:49:33.225Z,14.30
2023-05-10T18:52:00.991Z,14.20
2023-05-10T18:54:29.638Z,14.20
2023-05-10T18:56:58.500Z,14.20
2023-05-10T18:59:28.675Z,14.20
2023-05-10T19:01:57.449Z,14.10
2023-05-10T19:04:25.699Z,14.10
2023-05-10T19:06:53.738Z,14.00
2023-05-10T19:09:21.515Z,14.00
2023-05-10T19:11:49.537Z,14.00
2023-05-10T19:14:17.353Z,14.00
2023-05-10T19:16:49.139Z,14.00
2023-05-10T19:19:20.099Z,14.00
2023-05-10T19:21:48.208Z,14.00
2023-05-10T19:24:16.076Z,13.90
2023-05-10T19:26:43.938Z,14.00
2023-05-10T19:29:11.689Z,13.90
2023-05-10T19:31:40.052Z,13.90
2023-05-10T19:34:09.230Z,13.90
2023-05-10T19:36:37.050Z,13.90
2023-05-10T19:39:05.258Z,13.90
2023-05-10T19:41:33.341Z,13.90
2023-05-10T19:44:01.129Z,13.80
2023-05-10T19:46:28.904Z,13.80
2023-05-10T19:48:56.661Z,13.80
2023-05-10T19:51:25.766Z,13.80
2023-05-10T19:53:53.525Z,13.70
2023-05-10T19:56:21.541Z,13.70
2023-05-10T19:58:49.295Z,13.70
2023-05-10T20:01:17.118Z,13.80
2023-05-10T20:03:44.999Z,13.80
2023-05-10T20:06:13.093Z,13.70
2023-05-10T20:08:42.235Z,13.70
2023-05-10T20:11:10.531Z,13.70
2023-05-10T20:13:38.406Z,13.70
2023-05-10T20:16:07.048Z,13.60
2023-05-10T20:18:34.913Z,13.60
2023-05-10T20:21:02.684Z,13.50
2023-05-10T20:23:30.469Z,13.50
2023-05-10T20:25:59.652Z,13.50
2023-05-10T20:28:28.214Z,13.40
2023-05-10T20:30:56.854Z,13.40
2023-05-10T20:33:25.003Z,13.40
2023-05-10T20:35:52.844Z,13.40
2023-05-10T20:38:21.239Z,13.30
2023-05-10T20:40:48.990Z,13.30
2023-05-10T20:43:18.680Z,13.30
2023-05-10T20:45:46.582Z,13.30
2023-05-10T20:48:14.569Z,13.30
2023-05-10T20:50:42.291Z,13.30
2023-05-10T20:53:10.134Z,13.40
2023-05-10T20:55:38.382Z,13.30
2023-05-10T20:58:06.154Z,13.30
2023-05-10T21:00:35.260Z,13.30
2023-05-10T21:03:03.092Z,13.30
2023-05-10T21:05:31.389Z,13.30
2023-05-10T21:07:59.257Z,13.30
2023-05-10T21:10:28.205Z,13.30
2023-05-10T21:12:56.135Z,13.30
2023-05-10T21:15:25.443Z,13.30
2023-05-10T21:17:55.052Z,13.30
2023-05-10T21:20:23.370Z,13.30
2023-05-10T21:22:51.128Z,13.30
2023-05-10T21:25:19.030Z,13.30
2023-05-10T21:27:47.124Z,13.20
2023-05-10T21:30:15.305Z,13.20
2023-05-10T21:32:43.195Z,13.20
2023-05-10T21:35:12.508Z,13.20
2023-05-10T21:37:40.264Z,13.20
2023-05-10T21:40:08.989Z,13.20
2023-05-10T21:42:36.763Z,13.10
2023-05-10T21:45:04.981Z,13.20
2023-05-10T21:47:32.930Z,13.20
2023-05-10T21:50:00.819Z,13.20
2023-05-10T21:52:29.905Z,13.20
2023-05-10T21:54:57.672Z,13.20
2023-05-10T21:57:25.436Z,13.20
2023-05-10T21:59:53.190Z,13.10
2023-05-10T22:02:20.961Z,13.10
2023-05-10T22:04:48.779Z,13.10
2023-05-10T22:07:16.853Z,13.10
2023-05-10T22:09:45.961Z,13.10
2023-05-10T22:12:13.774Z,13.10
2023-05-10T22:14:41.558Z,13.00
2023-05-10T22:17:09.376Z,13.10
2023-05-10T22:19:37.191Z,13.10
2023-05-10T22:22:04.958Z,13.00
2023-05-10T22:24:32.786Z,13.10
2023-05-10T22:27:02.725Z,13.10
2023-05-10T22:29:30.595Z,13.10
2023-05-10T22:31:58.694Z,13.10
2023-05-10T22:34:26.638Z,13.10
2023-05-10T22:36:54.356Z,13.00
2023-05-10T22:39:22.465Z,13.00
2023-05-10T22:41:50.245Z,13.10
2023-05-10T22:44:19.383Z,13.00
2023-05-10T22:46:47.234Z,13.00
2023-05-10T22:49:15.052Z,13.10
2023-05-10T22:51:42.801Z,13.10
2023-05-10T22:54:10.542Z,13.00
2023-05-10T22:56:38.424Z,13.10
2023-05-10T22:59:06.244Z,13.00
2023-05-10T23:01:35.503Z,13.00
2023-05-10T23:04:03.373Z,13.00
2023-05-10T23:06:31.120Z,13.10
2023-05-10T23:08:58.850Z,13.00
2023-05-10T23:11:26.621Z,13.10
2023-05-10T23:13:54.386Z,13.10
2023-05-10T23:16:22.346Z,13.10
2023-05-10T23:18:51.496Z,13.10
2023-05-10T23:21:19.273Z,13.10
2023-05-10T23:23:47.052Z,13.20
2023-05-10T23:26:14.829Z,13.10
2023-05-10T23:28:42.587Z,13.20
2023-05-10T23:31:10.495Z,13.20
2023-05-10T23:33:38.294Z,13.10
2023-05-10T23:36:07.961Z,13.20
2023-05-10T23:38:35.767Z,13.20
2023-05-10T23:41:03.558Z,13.10
2023-05-10T23:43:31.508Z,13.10
2023-05-10T23:45:59.620Z,13.10
2023-05-10T23:48:27.443Z,13.00
2023-05-10T23:50:55.211Z,13.00
2023-05-10T23:53:24.329Z,13.00
2023-05-10T23:55:52.074Z,13.00
2023-05-10T23:58:19.841Z,13.00
